sensor_id;sensor_type;location;lat;lon;timestamp;temperature;humidity
24326;DHT22;12448;45.532;5.290;2024-03-25T00:01:30;7.60;90.20
24326;DHT22;12448;45.532;5.290;2024-03-25T00:03:56;7.90;90.30
24326;DHT22;12448;45.532;5.290;2024-03-25T00:06:22;7.80;90.30
24326;DHT22;12448;45.532;5.290;2024-03-25T00:08:47;7.50;90.30
24326;DHT22;12448;45.532;5.290;2024-03-25T00:11:13;7.50;90.20
24326;DHT22;12448;45.532;5.290;2024-03-25T00:13:39;7.50;90.30
24326;DHT22;12448;45.532;5.290;2024-03-25T00:16:05;7.60;90.30
24326;DHT22;12448;45.532;5.290;2024-03-25T00:18:32;7.40;90.30
24326;DHT22;12448;45.532;5.290;2024-03-25T00:20:58;8.00;90.50
24326;DHT22;12448;45.532;5.290;2024-03-25T00:23:24;7.40;90.40
24326;DHT22;12448;45.532;5.290;2024-03-25T00:25:49;7.70;90.50
24326;DHT22;12448;45.532;5.290;2024-03-25T00:28:15;7.40;90.50
24326;DHT22;12448;45.532;5.290;2024-03-25T00:30:41;7.30;90.50
24326;DHT22;12448;45.532;5.290;2024-03-25T00:33:07;8.00;90.70
24326;DHT22;12448;45.532;5.290;2024-03-25T00:35:33;7.40;90.50
24326;DHT22;12448;45.532;5.290;2024-03-25T00:37:59;7.50;90.40
24326;DHT22;12448;45.532;5.290;2024-03-25T00:40:26;7.70;90.40
24326;DHT22;12448;45.532;5.290;2024-03-25T00:42:52;7.50;90.30
24326;DHT22;12448;45.532;5.290;2024-03-25T00:45:17;7.50;90.30
24326;DHT22;12448;45.532;5.290;2024-03-25T00:47:43;7.40;90.30
24326;DHT22;12448;45.532;5.290;2024-03-25T00:50:09;8.00;90.50
24326;DHT22;12448;45.532;5.290;2024-03-25T00:52:35;7.40;90.40
24326;DHT22;12448;45.532;5.290;2024-03-25T00:55:01;7.90;90.50
24326;DHT22;12448;45.532;5.290;2024-03-25T00:57:27;7.40;90.30
24326;DHT22;12448;45.532;5.290;2024-03-25T00:59:55;7.30;90.20
24326;DHT22;12448;45.532;5.290;2024-03-25T01:02:21;7.40;90.30
24326;DHT22;12448;45.532;5.290;2024-03-25T01:04:46;7.80;90.40
24326;DHT22;12448;45.532;5.290;2024-03-25T01:07:12;7.70;90.30
24326;DHT22;12448;45.532;5.290;2024-03-25T01:09:38;7.70;90.30
24326;DHT22;12448;45.532;5.290;2024-03-25T01:12:04;7.80;90.40
24326;DHT22;12448;45.532;5.290;2024-03-25T01:14:30;7.40;90.30
24326;DHT22;12448;45.532;5.290;2024-03-25T01:16:55;7.80;90.50
24326;DHT22;12448;45.532;5.290;2024-03-25T01:19:22;8.00;90.60
24326;DHT22;12448;45.532;5.290;2024-03-25T01:21:48;7.60;90.50
24326;DHT22;12448;45.532;5.290;2024-03-25T01:24:14;7.70;90.50
24326;DHT22;12448;45.532;5.290;2024-03-25T01:26:40;7.40;90.40
24326;DHT22;12448;45.532;5.290;2024-03-25T01:29:06;8.00;90.70
24326;DHT22;12448;45.532;5.290;2024-03-25T01:31:31;7.60;90.60
24326;DHT22;12448;45.532;5.290;2024-03-25T01:33:57;7.20;90.50
24326;DHT22;12448;45.532;5.290;2024-03-25T01:36:23;7.20;90.50
24326;DHT22;12448;45.532;5.290;2024-03-25T01:38:48;7.20;90.60
24326;DHT22;12448;45.532;5.290;2024-03-25T01:41:20;7.40;90.70
24326;DHT22;12448;45.532;5.290;2024-03-25T01:43:48;7.10;90.70
24326;DHT22;12448;45.532;5.290;2024-03-25T01:46:15;7.10;90.70
24326;DHT22;12448;45.532;5.290;2024-03-25T01:48:42;7.10;90.60
24326;DHT22;12448;45.532;5.290;2024-03-25T01:51:08;7.10;90.70
24326;DHT22;12448;45.532;5.290;2024-03-25T01:53:34;7.50;90.90
24326;DHT22;12448;45.532;5.290;2024-03-25T01:56:01;7.00;90.70
24326;DHT22;12448;45.532;5.290;2024-03-25T01:58:27;7.00;90.70
24326;DHT22;12448;45.532;5.290;2024-03-25T02:00:54;7.00;90.70
24326;DHT22;12448;45.532;5.290;2024-03-25T02:03:20;6.90;90.80
24326;DHT22;12448;45.532;5.290;2024-03-25T02:05:49;7.00;90.80
24326;DHT22;12448;45.532;5.290;2024-03-25T02:08:16;7.40;90.80
24326;DHT22;12448;45.532;5.290;2024-03-25T02:10:43;6.90;90.70
24326;DHT22;12448;45.532;5.290;2024-03-25T02:13:08;6.90;90.60
24326;DHT22;12448;45.532;5.290;2024-03-25T02:15:35;6.90;90.70
24326;DHT22;12448;45.532;5.290;2024-03-25T02:18:01;6.90;90.70
24326;DHT22;12448;45.532;5.290;2024-03-25T02:20:26;6.90;90.70
24326;DHT22;12448;45.532;5.290;2024-03-25T02:22:53;7.10;90.70
24326;DHT22;12448;45.532;5.290;2024-03-25T02:25:19;6.90;90.60
24326;DHT22;12448;45.532;5.290;2024-03-25T02:27:45;7.10;90.70
24326;DHT22;12448;45.532;5.290;2024-03-25T02:30:13;7.20;90.80
24326;DHT22;12448;45.532;5.290;2024-03-25T02:32:39;6.80;90.70
24326;DHT22;12448;45.532;5.290;2024-03-25T02:35:07;7.00;91.10
24326;DHT22;12448;45.532;5.290;2024-03-25T02:37:36;6.80;90.80
24326;DHT22;12448;45.532;5.290;2024-03-25T02:40:02;7.40;91.00
24326;DHT22;12448;45.532;5.290;2024-03-25T02:42:31;6.80;90.80
24326;DHT22;12448;45.532;5.290;2024-03-25T02:44:58;6.80;90.90
24326;DHT22;12448;45.532;5.290;2024-03-25T02:47:24;7.00;90.90
24326;DHT22;12448;45.532;5.290;2024-03-25T02:49:50;6.80;90.80
24326;DHT22;12448;45.532;5.290;2024-03-25T02:52:17;6.90;90.80
24326;DHT22;12448;45.532;5.290;2024-03-25T02:54:42;7.30;90.90
24326;DHT22;12448;45.532;5.290;2024-03-25T02:57:08;6.90;90.80
24326;DHT22;12448;45.532;5.290;2024-03-25T02:59:34;6.70;90.80
24326;DHT22;12448;45.532;5.290;2024-03-25T03:02:02;6.80;90.80
24326;DHT22;12448;45.532;5.290;2024-03-25T03:04:28;6.70;90.80
24326;DHT22;12448;45.532;5.290;2024-03-25T03:06:53;6.70;90.70
24326;DHT22;12448;45.532;5.290;2024-03-25T03:09:19;7.40;90.80
24326;DHT22;12448;45.532;5.290;2024-03-25T03:11:45;6.70;90.60
24326;DHT22;12448;45.532;5.290;2024-03-25T03:14:10;6.70;90.70
24326;DHT22;12448;45.532;5.290;2024-03-25T03:16:36;6.70;90.80
24326;DHT22;12448;45.532;5.290;2024-03-25T03:19:02;6.70;90.80
24326;DHT22;12448;45.532;5.290;2024-03-25T03:21:28;6.90;90.90
24326;DHT22;12448;45.532;5.290;2024-03-25T03:23:55;7.00;90.90
24326;DHT22;12448;45.532;5.290;2024-03-25T03:26:21;6.60;90.80
24326;DHT22;12448;45.532;5.290;2024-03-25T03:28:47;6.70;90.90
24326;DHT22;12448;45.532;5.290;2024-03-25T03:31:12;7.20;91.00
24326;DHT22;12448;45.532;5.290;2024-03-25T03:33:38;6.60;90.70
24326;DHT22;12448;45.532;5.290;2024-03-25T03:36:04;7.10;90.70
24326;DHT22;12448;45.532;5.290;2024-03-25T03:38:30;6.50;90.60
24326;DHT22;12448;45.532;5.290;2024-03-25T03:41:03;6.90;90.70
24326;DHT22;12448;45.532;5.290;2024-03-25T03:43:32;6.30;90.50
24326;DHT22;12448;45.532;5.290;2024-03-25T03:45:57;6.30;90.60
24326;DHT22;12448;45.532;5.290;2024-03-25T03:48:23;6.20;90.70
24326;DHT22;12448;45.532;5.290;2024-03-25T03:50:49;6.50;90.90
24326;DHT22;12448;45.532;5.290;2024-03-25T03:53:14;6.50;90.90
24326;DHT22;12448;45.532;5.290;2024-03-25T03:55:40;6.40;91.00
24326;DHT22;12448;45.532;5.290;2024-03-25T03:58:05;6.30;91.00
24326;DHT22;12448;45.532;5.290;2024-03-25T04:00:34;6.30;90.90
24326;DHT22;12448;45.532;5.290;2024-03-25T04:03:01;6.80;90.90
24326;DHT22;12448;45.532;5.290;2024-03-25T04:05:30;6.30;90.70
24326;DHT22;12448;45.532;5.290;2024-03-25T04:07:56;6.30;90.70
24326;DHT22;12448;45.532;5.290;2024-03-25T04:10:23;6.20;90.70
24326;DHT22;12448;45.532;5.290;2024-03-25T04:12:48;6.80;90.80
24326;DHT22;12448;45.532;5.290;2024-03-25T04:15:14;6.80;90.80
24326;DHT22;12448;45.532;5.290;2024-03-25T04:17:43;6.20;90.60
24326;DHT22;12448;45.532;5.290;2024-03-25T04:20:11;6.50;90.70
24326;DHT22;12448;45.532;5.290;2024-03-25T04:22:40;6.20;90.60
24326;DHT22;12448;45.532;5.290;2024-03-25T04:25:07;6.70;90.70
24326;DHT22;12448;45.532;5.290;2024-03-25T04:27:33;6.20;90.40
24326;DHT22;12448;45.532;5.290;2024-03-25T04:29:59;6.70;90.40
24326;DHT22;12448;45.532;5.290;2024-03-25T04:32:25;6.00;90.20
24326;DHT22;12448;45.532;5.290;2024-03-25T04:34:50;6.40;90.30
24326;DHT22;12448;45.532;5.290;2024-03-25T04:37:16;6.00;90.40
24326;DHT22;12448;45.532;5.290;2024-03-25T04:39:41;5.80;90.40
24326;DHT22;12448;45.532;5.290;2024-03-25T04:42:07;5.70;90.50
24326;DHT22;12448;45.532;5.290;2024-03-25T04:44:33;5.60;90.50
24326;DHT22;12448;45.532;5.290;2024-03-25T04:46:58;5.60;90.40
24326;DHT22;12448;45.532;5.290;2024-03-25T04:49:24;5.60;90.50
24326;DHT22;12448;45.532;5.290;2024-03-25T04:51:49;5.60;90.60
24326;DHT22;12448;45.532;5.290;2024-03-25T04:54:17;5.70;90.70
24326;DHT22;12448;45.532;5.290;2024-03-25T04:56:42;6.00;90.80
24326;DHT22;12448;45.532;5.290;2024-03-25T04:59:09;5.80;90.70
24326;DHT22;12448;45.532;5.290;2024-03-25T05:01:35;6.30;90.70
24326;DHT22;12448;45.532;5.290;2024-03-25T05:04:02;5.80;90.40
24326;DHT22;12448;45.532;5.290;2024-03-25T05:06:28;5.70;90.30
24326;DHT22;12448;45.532;5.290;2024-03-25T05:08:54;6.10;90.80
24326;DHT22;12448;45.532;5.290;2024-03-25T05:11:19;5.70;90.10
24326;DHT22;12448;45.532;5.290;2024-03-25T05:13:45;5.60;90.20
24326;DHT22;12448;45.532;5.290;2024-03-25T05:16:11;6.10;90.40
24326;DHT22;12448;45.532;5.290;2024-03-25T05:18:36;5.90;90.40
24326;DHT22;12448;45.532;5.290;2024-03-25T05:21:02;5.80;90.50
24326;DHT22;12448;45.532;5.290;2024-03-25T05:23:28;6.10;90.60
24326;DHT22;12448;45.532;5.290;2024-03-25T05:25:53;5.90;90.50
24326;DHT22;12448;45.532;5.290;2024-03-25T05:28:19;6.10;90.40
24326;DHT22;12448;45.532;5.290;2024-03-25T05:30:44;6.30;90.50
24326;DHT22;12448;45.532;5.290;2024-03-25T05:33:10;5.70;90.30
24326;DHT22;12448;45.532;5.290;2024-03-25T05:35:36;5.70;90.30
24326;DHT22;12448;45.532;5.290;2024-03-25T05:38:02;5.80;90.40
24326;DHT22;12448;45.532;5.290;2024-03-25T05:40:31;5.80;90.40
24326;DHT22;12448;45.532;5.290;2024-03-25T05:42:56;6.40;90.70
24326;DHT22;12448;45.532;5.290;2024-03-25T05:45:22;6.50;90.60
24326;DHT22;12448;45.532;5.290;2024-03-25T05:47:50;5.80;90.40
24326;DHT22;12448;45.532;5.290;2024-03-25T05:50:16;5.80;90.40
24326;DHT22;12448;45.532;5.290;2024-03-25T05:52:42;6.10;90.30
24326;DHT22;12448;45.532;5.290;2024-03-25T05:55:08;5.60;90.40
24326;DHT22;12448;45.532;5.290;2024-03-25T05:57:35;5.60;90.10
24326;DHT22;12448;45.532;5.290;2024-03-25T06:00:02;5.80;90.20
24326;DHT22;12448;45.532;5.290;2024-03-25T06:02:28;5.60;90.30
24326;DHT22;12448;45.532;5.290;2024-03-25T06:04:55;5.50;90.10
24326;DHT22;12448;45.532;5.290;2024-03-25T06:07:22;6.10;90.50
24326;DHT22;12448;45.532;5.290;2024-03-25T06:09:48;5.80;90.60
24326;DHT22;12448;45.532;5.290;2024-03-25T06:12:13;6.20;90.80
24326;DHT22;12448;45.532;5.290;2024-03-25T06:14:39;5.50;90.60
24326;DHT22;12448;45.532;5.290;2024-03-25T06:17:05;6.10;90.70
24326;DHT22;12448;45.532;5.290;2024-03-25T06:19:30;6.20;90.70
24326;DHT22;12448;45.532;5.290;2024-03-25T06:21:56;5.70;90.70
24326;DHT22;12448;45.532;5.290;2024-03-25T06:24:21;5.80;90.80
24326;DHT22;12448;45.532;5.290;2024-03-25T06:26:47;6.10;91.20
24326;DHT22;12448;45.532;5.290;2024-03-25T06:29:13;5.80;90.70
24326;DHT22;12448;45.532;5.290;2024-03-25T06:31:38;5.90;90.80
24326;DHT22;12448;45.532;5.290;2024-03-25T06:34:23;6.00;90.80
24326;DHT22;12448;45.532;5.290;2024-03-25T06:36:52;6.00;91.00
24326;DHT22;12448;45.532;5.290;2024-03-25T06:39:17;6.20;90.90
24326;DHT22;12448;45.532;5.290;2024-03-25T06:41:44;6.80;91.00
24326;DHT22;12448;45.532;5.290;2024-03-25T06:44:09;6.30;90.80
24326;DHT22;12448;45.532;5.290;2024-03-25T06:46:35;6.30;90.80
24326;DHT22;12448;45.532;5.290;2024-03-25T06:49:01;6.40;90.80
24326;DHT22;12448;45.532;5.290;2024-03-25T06:51:26;6.50;91.00
24326;DHT22;12448;45.532;5.290;2024-03-25T06:53:52;6.90;91.10
24326;DHT22;12448;45.532;5.290;2024-03-25T06:56:18;7.00;91.10
24326;DHT22;12448;45.532;5.290;2024-03-25T06:58:44;7.20;91.10
24326;DHT22;12448;45.532;5.290;2024-03-25T07:01:10;6.70;90.90
24326;DHT22;12448;45.532;5.290;2024-03-25T07:03:39;6.40;90.90
24326;DHT22;12448;45.532;5.290;2024-03-25T07:06:05;7.00;91.10
24326;DHT22;12448;45.532;5.290;2024-03-25T07:08:31;6.50;91.00
24326;DHT22;12448;45.532;5.290;2024-03-25T07:10:57;6.40;91.10
24326;DHT22;12448;45.532;5.290;2024-03-25T07:13:23;6.30;91.30
24326;DHT22;12448;45.532;5.290;2024-03-25T07:15:49;6.20;91.50
24326;DHT22;12448;45.532;5.290;2024-03-25T07:18:14;6.40;91.60
24326;DHT22;12448;45.532;5.290;2024-03-25T07:20:41;6.90;91.90
24326;DHT22;12448;45.532;5.290;2024-03-25T07:23:07;7.00;92.00
24326;DHT22;12448;45.532;5.290;2024-03-25T07:25:33;6.50;91.70
24326;DHT22;12448;45.532;5.290;2024-03-25T07:27:58;6.60;91.70
24326;DHT22;12448;45.532;5.290;2024-03-25T07:30:24;6.70;91.70
24326;DHT22;12448;45.532;5.290;2024-03-25T07:32:57;6.80;91.60
24326;DHT22;12448;45.532;5.290;2024-03-25T07:35:23;6.90;91.70
24326;DHT22;12448;45.532;5.290;2024-03-25T07:37:49;7.30;91.70
24326;DHT22;12448;45.532;5.290;2024-03-25T07:40:17;7.00;91.50
24326;DHT22;12448;45.532;5.290;2024-03-25T07:42:43;7.10;91.30
24326;DHT22;12448;45.532;5.290;2024-03-25T07:45:09;7.20;91.10
24326;DHT22;12448;45.532;5.290;2024-03-25T07:47:35;7.70;91.10
24326;DHT22;12448;45.532;5.290;2024-03-25T07:50:01;7.30;90.80
24326;DHT22;12448;45.532;5.290;2024-03-25T07:52:28;7.70;90.80
24326;DHT22;12448;45.532;5.290;2024-03-25T07:54:54;7.80;90.70
24326;DHT22;12448;45.532;5.290;2024-03-25T07:57:20;7.50;90.40
24326;DHT22;12448;45.532;5.290;2024-03-25T07:59:46;7.50;90.20
24326;DHT22;12448;45.532;5.290;2024-03-25T08:02:12;8.10;90.20
24326;DHT22;12448;45.532;5.290;2024-03-25T08:04:38;7.60;89.70
24326;DHT22;12448;45.532;5.290;2024-03-25T08:07:04;7.60;89.70
24326;DHT22;12448;45.532;5.290;2024-03-25T08:09:30;7.70;89.70
24326;DHT22;12448;45.532;5.290;2024-03-25T08:11:56;7.70;89.40
24326;DHT22;12448;45.532;5.290;2024-03-25T08:14:22;8.30;89.80
24326;DHT22;12448;45.532;5.290;2024-03-25T08:16:48;8.10;89.70
24326;DHT22;12448;45.532;5.290;2024-03-25T08:19:14;7.90;89.40
24326;DHT22;12448;45.532;5.290;2024-03-25T08:21:40;7.90;89.20
24326;DHT22;12448;45.532;5.290;2024-03-25T08:24:06;7.90;89.20
24326;DHT22;12448;45.532;5.290;2024-03-25T08:26:32;7.90;89.20
24326;DHT22;12448;45.532;5.290;2024-03-25T08:28:57;8.30;89.20
24326;DHT22;12448;45.532;5.290;2024-03-25T08:31:23;8.00;88.50
24326;DHT22;12448;45.532;5.290;2024-03-25T08:33:49;8.40;88.30
24326;DHT22;12448;45.532;5.290;2024-03-25T08:36:15;8.50;87.50
24326;DHT22;12448;45.532;5.290;2024-03-25T08:38:41;8.40;88.00
24326;DHT22;12448;45.532;5.290;2024-03-25T08:41:07;8.00;86.70
24326;DHT22;12448;45.532;5.290;2024-03-25T08:43:32;8.20;86.70
24326;DHT22;12448;45.532;5.290;2024-03-25T08:45:58;8.20;86.50
24326;DHT22;12448;45.532;5.290;2024-03-25T08:48:24;8.40;86.40
24326;DHT22;12448;45.532;5.290;2024-03-25T08:50:52;8.30;86.20
24326;DHT22;12448;45.532;5.290;2024-03-25T08:53:17;8.30;86.10
24326;DHT22;12448;45.532;5.290;2024-03-25T08:55:47;8.40;86.20
24326;DHT22;12448;45.532;5.290;2024-03-25T08:58:16;8.40;85.90
24326;DHT22;12448;45.532;5.290;2024-03-25T09:00:42;9.00;86.20
24326;DHT22;12448;45.532;5.290;2024-03-25T09:03:09;9.00;86.00
24326;DHT22;12448;45.532;5.290;2024-03-25T09:05:36;8.80;85.40
24326;DHT22;12448;45.532;5.290;2024-03-25T09:08:05;8.70;85.20
24326;DHT22;12448;45.532;5.290;2024-03-25T09:10:37;8.70;84.80
24326;DHT22;12448;45.532;5.290;2024-03-25T09:13:21;8.90;84.80
24326;DHT22;12448;45.532;5.290;2024-03-25T09:15:49;8.90;84.60
24326;DHT22;12448;45.532;5.290;2024-03-25T09:18:15;8.90;84.30
24326;DHT22;12448;45.532;5.290;2024-03-25T09:20:44;9.30;84.60
24326;DHT22;12448;45.532;5.290;2024-03-25T09:23:10;9.00;84.30
24326;DHT22;12448;45.532;5.290;2024-03-25T09:25:36;9.00;84.20
24326;DHT22;12448;45.532;5.290;2024-03-25T09:28:01;9.50;84.30
24326;DHT22;12448;45.532;5.290;2024-03-25T09:30:28;9.20;84.20
24326;DHT22;12448;45.532;5.290;2024-03-25T09:32:54;9.60;84.50
24326;DHT22;12448;45.532;5.290;2024-03-25T09:35:19;9.80;84.30
24326;DHT22;12448;45.532;5.290;2024-03-25T09:37:45;9.40;83.70
24326;DHT22;12448;45.532;5.290;2024-03-25T09:40:17;10.00;83.90
24326;DHT22;12448;45.532;5.290;2024-03-25T09:43:06;9.50;83.40
24326;DHT22;12448;45.532;5.290;2024-03-25T09:45:54;9.50;82.80
24326;DHT22;12448;45.532;5.290;2024-03-25T09:48:21;9.60;83.20
24326;DHT22;12448;45.532;5.290;2024-03-25T09:50:49;9.70;83.20
24326;DHT22;12448;45.532;5.290;2024-03-25T09:53:14;9.70;83.00
24326;DHT22;12448;45.532;5.290;2024-03-25T09:55:40;9.80;82.60
24326;DHT22;12448;45.532;5.290;2024-03-25T09:58:07;10.10;82.50
24326;DHT22;12448;45.532;5.290;2024-03-25T10:00:33;9.90;82.20
24326;DHT22;12448;45.532;5.290;2024-03-25T10:02:59;9.90;82.30
24326;DHT22;12448;45.532;5.290;2024-03-25T10:05:24;10.00;82.80
24326;DHT22;12448;45.532;5.290;2024-03-25T10:07:53;9.90;82.60
24326;DHT22;12448;45.532;5.290;2024-03-25T10:10:20;10.10;82.50
24326;DHT22;12448;45.532;5.290;2024-03-25T10:12:46;10.20;82.50
24326;DHT22;12448;45.532;5.290;2024-03-25T10:15:17;10.20;82.50
24326;DHT22;12448;45.532;5.290;2024-03-25T10:17:44;10.30;82.40
24326;DHT22;12448;45.532;5.290;2024-03-25T10:20:15;10.40;82.40
24326;DHT22;12448;45.532;5.290;2024-03-25T10:22:45;10.40;82.10
24326;DHT22;12448;45.532;5.290;2024-03-25T10:25:31;10.40;81.70
24326;DHT22;12448;45.532;5.290;2024-03-25T10:28:06;10.60;81.90
24326;DHT22;12448;45.532;5.290;2024-03-25T10:30:35;10.50;81.60
24326;DHT22;12448;45.532;5.290;2024-03-25T10:33:03;10.50;81.60
24326;DHT22;12448;45.532;5.290;2024-03-25T10:35:36;10.50;81.50
24326;DHT22;12448;45.532;5.290;2024-03-25T10:38:17;10.50;81.10
24326;DHT22;12448;45.532;5.290;2024-03-25T10:40:44;10.60;82.00
24326;DHT22;12448;45.532;5.290;2024-03-25T10:43:11;10.60;82.00
24326;DHT22;12448;45.532;5.290;2024-03-25T10:45:42;10.70;82.20
24326;DHT22;12448;45.532;5.290;2024-03-25T10:48:17;11.10;82.00
24326;DHT22;12448;45.532;5.290;2024-03-25T10:50:46;10.80;81.80
24326;DHT22;12448;45.532;5.290;2024-03-25T10:53:12;10.90;81.80
24326;DHT22;12448;45.532;5.290;2024-03-25T10:55:40;11.00;81.80
24326;DHT22;12448;45.532;5.290;2024-03-25T10:58:07;11.10;81.90
24326;DHT22;12448;45.532;5.290;2024-03-25T11:00:34;11.20;81.90
24326;DHT22;12448;45.532;5.290;2024-03-25T11:03:01;11.30;81.60
24326;DHT22;12448;45.532;5.290;2024-03-25T11:05:27;11.40;79.40
24326;DHT22;12448;45.532;5.290;2024-03-25T11:07:53;11.40;78.90
24326;DHT22;12448;45.532;5.290;2024-03-25T11:10:18;11.50;76.40
24326;DHT22;12448;45.532;5.290;2024-03-25T11:13:22;11.60;76.10
24326;DHT22;12448;45.532;5.290;2024-03-25T11:15:54;11.70;75.00
24326;DHT22;12448;45.532;5.290;2024-03-25T11:18:26;11.70;75.50
24326;DHT22;12448;45.532;5.290;2024-03-25T11:21:26;11.70;73.40
24326;DHT22;12448;45.532;5.290;2024-03-25T11:24:07;11.80;73.40
24326;DHT22;12448;45.532;5.290;2024-03-25T11:26:33;11.90;73.40
24326;DHT22;12448;45.532;5.290;2024-03-25T11:29:02;11.70;72.30
24326;DHT22;12448;45.532;5.290;2024-03-25T11:31:27;12.00;72.30
24326;DHT22;12448;45.532;5.290;2024-03-25T11:33:53;11.90;71.70
24326;DHT22;12448;45.532;5.290;2024-03-25T11:36:20;12.00;71.70
24326;DHT22;12448;45.532;5.290;2024-03-25T11:38:58;12.10;71.80
24326;DHT22;12448;45.532;5.290;2024-03-25T11:41:43;12.10;69.60
24326;DHT22;12448;45.532;5.290;2024-03-25T11:44:10;12.10;67.90
24326;DHT22;12448;45.532;5.290;2024-03-25T11:46:39;12.20;69.50
24326;DHT22;12448;45.532;5.290;2024-03-25T11:49:13;12.20;69.80
24326;DHT22;12448;45.532;5.290;2024-03-25T11:51:40;12.30;69.60
24326;DHT22;12448;45.532;5.290;2024-03-25T11:54:13;12.40;70.30
24326;DHT22;12448;45.532;5.290;2024-03-25T11:56:39;12.50;70.40
24326;DHT22;12448;45.532;5.290;2024-03-25T11:59:04;12.60;70.20
24326;DHT22;12448;45.532;5.290;2024-03-25T12:01:31;12.60;70.60
24326;DHT22;12448;45.532;5.290;2024-03-25T12:03:57;12.70;70.20
24326;DHT22;12448;45.532;5.290;2024-03-25T12:06:23;12.70;69.90
24326;DHT22;12448;45.532;5.290;2024-03-25T12:08:48;12.80;70.20
24326;DHT22;12448;45.532;5.290;2024-03-25T12:11:33;12.80;70.10
24326;DHT22;12448;45.532;5.290;2024-03-25T12:13:59;12.90;69.90
24326;DHT22;12448;45.532;5.290;2024-03-25T12:16:26;12.90;69.70
24326;DHT22;12448;45.532;5.290;2024-03-25T12:18:52;13.00;69.60
24326;DHT22;12448;45.532;5.290;2024-03-25T12:21:23;13.00;69.50
24326;DHT22;12448;45.532;5.290;2024-03-25T12:23:54;13.00;69.50
24326;DHT22;12448;45.532;5.290;2024-03-25T12:26:30;13.10;69.90
24326;DHT22;12448;45.532;5.290;2024-03-25T12:28:56;13.10;69.50
24326;DHT22;12448;45.532;5.290;2024-03-25T12:31:23;13.20;70.20
24326;DHT22;12448;45.532;5.290;2024-03-25T12:33:49;13.20;70.50
24326;DHT22;12448;45.532;5.290;2024-03-25T12:36:15;13.30;70.40
24326;DHT22;12448;45.532;5.290;2024-03-25T12:38:40;13.30;70.80
24326;DHT22;12448;45.532;5.290;2024-03-25T12:41:10;13.40;70.10
24326;DHT22;12448;45.532;5.290;2024-03-25T12:43:42;13.40;69.60
24326;DHT22;12448;45.532;5.290;2024-03-25T12:46:08;13.50;69.70
24326;DHT22;12448;45.532;5.290;2024-03-25T12:48:35;13.50;70.00
24326;DHT22;12448;45.532;5.290;2024-03-25T12:51:01;13.60;69.70
24326;DHT22;12448;45.532;5.290;2024-03-25T12:53:27;13.70;69.80
24326;DHT22;12448;45.532;5.290;2024-03-25T12:55:53;13.70;69.20
24326;DHT22;12448;45.532;5.290;2024-03-25T12:58:18;14.40;69.20
24326;DHT22;12448;45.532;5.290;2024-03-25T13:00:44;13.90;69.00
24326;DHT22;12448;45.532;5.290;2024-03-25T13:03:11;14.00;68.30
24326;DHT22;12448;45.532;5.290;2024-03-25T13:05:37;14.00;68.10
24326;DHT22;12448;45.532;5.290;2024-03-25T13:08:03;14.10;68.10
24326;DHT22;12448;45.532;5.290;2024-03-25T13:10:29;14.10;68.00
24326;DHT22;12448;45.532;5.290;2024-03-25T13:12:55;14.10;67.80
24326;DHT22;12448;45.532;5.290;2024-03-25T13:15:21;14.10;67.70
24326;DHT22;12448;45.532;5.290;2024-03-25T13:17:47;14.20;67.90
24326;DHT22;12448;45.532;5.290;2024-03-25T13:20:13;14.20;67.80
24326;DHT22;12448;45.532;5.290;2024-03-25T13:22:39;14.20;67.80
24326;DHT22;12448;45.532;5.290;2024-03-25T13:25:06;14.20;67.30
24326;DHT22;12448;45.532;5.290;2024-03-25T13:27:32;14.20;67.60
24326;DHT22;12448;45.532;5.290;2024-03-25T13:29:58;14.20;67.70
24326;DHT22;12448;45.532;5.290;2024-03-25T13:32:23;14.10;67.30
24326;DHT22;12448;45.532;5.290;2024-03-25T13:34:50;14.10;67.20
24326;DHT22;12448;45.532;5.290;2024-03-25T13:37:15;14.00;66.40
24326;DHT22;12448;45.532;5.290;2024-03-25T13:39:41;14.00;66.20
24326;DHT22;12448;45.532;5.290;2024-03-25T13:42:07;13.90;66.80
24326;DHT22;12448;45.532;5.290;2024-03-25T13:44:32;13.80;67.00
24326;DHT22;12448;45.532;5.290;2024-03-25T13:46:58;13.80;67.80
24326;DHT22;12448;45.532;5.290;2024-03-25T13:49:23;13.80;68.30
24326;DHT22;12448;45.532;5.290;2024-03-25T13:52:07;13.80;67.80
24326;DHT22;12448;45.532;5.290;2024-03-25T13:54:33;13.80;67.50
24326;DHT22;12448;45.532;5.290;2024-03-25T13:56:59;13.80;67.70
24326;DHT22;12448;45.532;5.290;2024-03-25T13:59:25;13.80;67.00
24326;DHT22;12448;45.532;5.290;2024-03-25T14:01:51;13.70;66.20
24326;DHT22;12448;45.532;5.290;2024-03-25T14:04:17;13.80;66.10
24326;DHT22;12448;45.532;5.290;2024-03-25T14:06:43;13.70;65.30
24326;DHT22;12448;45.532;5.290;2024-03-25T14:09:22;13.60;65.20
24326;DHT22;12448;45.532;5.290;2024-03-25T14:11:48;13.60;65.00
24326;DHT22;12448;45.532;5.290;2024-03-25T14:14:14;13.50;65.60
24326;DHT22;12448;45.532;5.290;2024-03-25T14:16:39;13.50;65.80
24326;DHT22;12448;45.532;5.290;2024-03-25T14:19:05;13.50;65.30
24326;DHT22;12448;45.532;5.290;2024-03-25T14:21:30;13.50;65.40
24326;DHT22;12448;45.532;5.290;2024-03-25T14:23:56;13.40;65.60
24326;DHT22;12448;45.532;5.290;2024-03-25T14:26:22;13.40;65.70
24326;DHT22;12448;45.532;5.290;2024-03-25T14:28:47;13.40;66.10
24326;DHT22;12448;45.532;5.290;2024-03-25T14:31:13;13.40;66.10
24326;DHT22;12448;45.532;5.290;2024-03-25T14:33:38;13.40;65.90
24326;DHT22;12448;45.532;5.290;2024-03-25T14:36:07;13.40;65.90
24326;DHT22;12448;45.532;5.290;2024-03-25T14:38:32;13.40;65.80
24326;DHT22;12448;45.532;5.290;2024-03-25T14:41:00;13.30;65.80
24326;DHT22;12448;45.532;5.290;2024-03-25T14:43:26;13.30;66.50
24326;DHT22;12448;45.532;5.290;2024-03-25T14:45:53;13.30;65.80
24326;DHT22;12448;45.532;5.290;2024-03-25T14:48:18;13.20;66.20
24326;DHT22;12448;45.532;5.290;2024-03-25T14:50:44;13.20;66.50
24326;DHT22;12448;45.532;5.290;2024-03-25T14:53:10;13.20;66.20
24326;DHT22;12448;45.532;5.290;2024-03-25T14:55:36;13.20;66.60
24326;DHT22;12448;45.532;5.290;2024-03-25T14:58:01;13.20;66.80
24326;DHT22;12448;45.532;5.290;2024-03-25T15:00:27;13.20;67.10
24326;DHT22;12448;45.532;5.290;2024-03-25T15:02:52;13.20;67.10
24326;DHT22;12448;45.532;5.290;2024-03-25T15:05:18;13.10;67.30
24326;DHT22;12448;45.532;5.290;2024-03-25T15:07:47;13.10;67.30
24326;DHT22;12448;45.532;5.290;2024-03-25T15:10:13;13.10;67.50
24326;DHT22;12448;45.532;5.290;2024-03-25T15:12:38;13.10;67.70
24326;DHT22;12448;45.532;5.290;2024-03-25T15:15:05;13.10;67.80
24326;DHT22;12448;45.532;5.290;2024-03-25T15:17:33;13.10;67.90
24326;DHT22;12448;45.532;5.290;2024-03-25T15:19:59;13.10;68.20
24326;DHT22;12448;45.532;5.290;2024-03-25T15:22:25;13.10;68.30
24326;DHT22;12448;45.532;5.290;2024-03-25T15:24:51;13.00;68.60
24326;DHT22;12448;45.532;5.290;2024-03-25T15:27:17;13.00;69.10
24326;DHT22;12448;45.532;5.290;2024-03-25T15:29:42;13.00;69.60
24326;DHT22;12448;45.532;5.290;2024-03-25T15:32:08;13.00;69.90
24326;DHT22;12448;45.532;5.290;2024-03-25T15:34:33;13.00;69.90
24326;DHT22;12448;45.532;5.290;2024-03-25T15:36:59;13.00;69.80
24326;DHT22;12448;45.532;5.290;2024-03-25T15:39:25;13.00;69.90